sensor_id;sensor_type;location;lat;lon;timestamp;P1;durP1;ratioP1;P2;durP2;ratioP2
5898;SDS011;2975;50.956;6.962;2023-05-02T00:00:10;27.70;;;19.67;;
5898;SDS011;2975;50.956;6.962;2023-05-02T00:02:37;26.80;;;19.70;;
5898;SDS011;2975;50.956;6.962;2023-05-02T00:05:03;25.73;;;19.80;;
5898;SDS011;2975;50.956;6.962;2023-05-02T00:07:30;28.63;;;19.27;;
5898;SDS011;2975;50.956;6.962;2023-05-02T00:09:55;28.73;;;20.87;;
5898;SDS011;2975;50.956;6.962;2023-05-02T00:12:21;26.33;;;20.23;;
5898;SDS011;2975;50.956;6.962;2023-05-02T00:14:47;27.27;;;20.27;;
5898;SDS011;2975;50.956;6.962;2023-05-02T00:17:15;28.97;;;21.70;;
5898;SDS011;2975;50.956;6.962;2023-05-02T00:19:42;32.17;;;21.40;;
5898;SDS011;2975;50.956;6.962;2023-05-02T00:22:08;32.87;;;22.23;;
5898;SDS011;2975;50.956;6.962;2023-05-02T00:24:33;30.23;;;22.27;;
5898;SDS011;2975;50.956;6.962;2023-05-02T00:26:59;31.93;;;23.13;;
5898;SDS011;2975;50.956;6.962;2023-05-02T00:29:24;35.27;;;23.20;;
5898;SDS011;2975;50.956;6.962;2023-05-02T00:31:50;32.33;;;21.97;;
5898;SDS011;2975;50.956;6.962;2023-05-02T00:34:16;38.10;;;25.40;;
5898;SDS011;2975;50.956;6.962;2023-05-02T00:36:41;36.47;;;23.53;;
5898;SDS011;2975;50.956;6.962;2023-05-02T00:39:07;39.40;;;25.57;;
5898;SDS011;2975;50.956;6.962;2023-05-02T00:41:32;38.73;;;23.40;;
5898;SDS011;2975;50.956;6.962;2023-05-02T00:43:58;38.50;;;24.90;;
5898;SDS011;2975;50.956;6.962;2023-05-02T00:46:23;36.50;;;24.77;;
5898;SDS011;2975;50.956;6.962;2023-05-02T00:48:49;39.33;;;24.67;;
5898;SDS011;2975;50.956;6.962;2023-05-02T00:51:15;37.53;;;24.90;;
5898;SDS011;2975;50.956;6.962;2023-05-02T00:53:42;39.30;;;25.30;;
5898;SDS011;2975;50.956;6.962;2023-05-02T00:56:08;39.30;;;25.60;;
5898;SDS011;2975;50.956;6.962;2023-05-02T00:58:33;45.33;;;25.53;;
5898;SDS011;2975;50.956;6.962;2023-05-02T01:06:52;38.53;;;24.30;;
5898;SDS011;2975;50.956;6.962;2023-05-02T01:12:27;41.87;;;24.67;;
5898;SDS011;2975;50.956;6.962;2023-05-02T01:15:06;39.47;;;23.60;;
5898;SDS011;2975;50.956;6.962;2023-05-02T01:17:36;34.77;;;23.30;;
5898;SDS011;2975;50.956;6.962;2023-05-02T01:20:06;34.13;;;22.33;;
5898;SDS011;2975;50.956;6.962;2023-05-02T01:22:37;37.53;;;22.23;;
5898;SDS011;2975;50.956;6.962;2023-05-02T01:25:13;37.43;;;23.63;;
5898;SDS011;2975;50.956;6.962;2023-05-02T01:30:46;41.93;;;25.67;;
5898;SDS011;2975;50.956;6.962;2023-05-02T01:33:14;39.87;;;25.33;;
5898;SDS011;2975;50.956;6.962;2023-05-02T01:35:43;39.63;;;24.73;;
5898;SDS011;2975;50.956;6.962;2023-05-02T01:38:14;40.43;;;25.47;;
5898;SDS011;2975;50.956;6.962;2023-05-02T01:40:43;40.77;;;24.87;;
5898;SDS011;2975;50.956;6.962;2023-05-02T01:43:10;41.77;;;25.73;;
5898;SDS011;2975;50.956;6.962;2023-05-02T01:45:37;42.47;;;25.33;;
5898;SDS011;2975;50.956;6.962;2023-05-02T01:48:05;44.23;;;27.17;;
5898;SDS011;2975;50.956;6.962;2023-05-02T01:50:31;40.90;;;25.93;;
5898;SDS011;2975;50.956;6.962;2023-05-02T01:52:58;41.07;;;26.60;;
5898;SDS011;2975;50.956;6.962;2023-05-02T01:55:25;42.10;;;25.53;;
5898;SDS011;2975;50.956;6.962;2023-05-02T01:57:52;46.40;;;26.90;;
5898;SDS011;2975;50.956;6.962;2023-05-02T02:00:20;44.53;;;26.73;;
5898;SDS011;2975;50.956;6.962;2023-05-02T02:02:47;45.47;;;26.87;;
5898;SDS011;2975;50.956;6.962;2023-05-02T02:05:14;46.87;;;27.57;;
5898;SDS011;2975;50.956;6.962;2023-05-02T02:07:42;51.00;;;29.17;;
5898;SDS011;2975;50.956;6.962;2023-05-02T02:10:08;56.03;;;30.03;;
5898;SDS011;2975;50.956;6.962;2023-05-02T02:12:53;49.80;;;28.50;;
5898;SDS011;2975;50.956;6.962;2023-05-02T02:15:28;46.80;;;28.23;;
5898;SDS011;2975;50.956;6.962;2023-05-02T02:18:04;51.07;;;28.27;;
5898;SDS011;2975;50.956;6.962;2023-05-02T02:20:42;52.30;;;30.13;;
5898;SDS011;2975;50.956;6.962;2023-05-02T02:23:09;50.73;;;28.53;;
5898;SDS011;2975;50.956;6.962;2023-05-02T02:25:35;49.93;;;28.50;;
5898;SDS011;2975;50.956;6.962;2023-05-02T02:28:02;49.43;;;28.37;;
5898;SDS011;2975;50.956;6.962;2023-05-02T02:30:28;49.43;;;29.10;;
5898;SDS011;2975;50.956;6.962;2023-05-02T02:32:54;53.10;;;29.67;;
5898;SDS011;2975;50.956;6.962;2023-05-02T02:35:19;47.50;;;28.17;;
5898;SDS011;2975;50.956;6.962;2023-05-02T02:37:46;50.83;;;29.50;;
5898;SDS011;2975;50.956;6.962;2023-05-02T02:51:12;45.23;;;26.40;;
5898;SDS011;2975;50.956;6.962;2023-05-02T02:56:14;45.37;;;24.93;;
5898;SDS011;2975;50.956;6.962;2023-05-02T02:58:57;45.47;;;25.90;;
5898;SDS011;2975;50.956;6.962;2023-05-02T03:01:30;43.60;;;23.73;;
5898;SDS011;2975;50.956;6.962;2023-05-02T03:03:56;47.50;;;25.83;;
5898;SDS011;2975;50.956;6.962;2023-05-02T03:06:23;44.93;;;23.40;;
5898;SDS011;2975;50.956;6.962;2023-05-02T03:08:49;43.43;;;24.07;;
5898;SDS011;2975;50.956;6.962;2023-05-02T03:11:15;43.20;;;24.10;;
5898;SDS011;2975;50.956;6.962;2023-05-02T03:13:41;43.33;;;23.13;;
5898;SDS011;2975;50.956;6.962;2023-05-02T03:19:03;39.07;;;23.03;;
5898;SDS011;2975;50.956;6.962;2023-05-02T03:21:30;43.83;;;22.97;;
5898;SDS011;2975;50.956;6.962;2023-05-02T03:23:59;41.57;;;22.33;;
5898;SDS011;2975;50.956;6.962;2023-05-02T03:26:26;42.40;;;23.47;;
5898;SDS011;2975;50.956;6.962;2023-05-02T03:28:52;41.53;;;23.60;;
5898;SDS011;2975;50.956;6.962;2023-05-02T03:31:18;43.27;;;23.90;;
5898;SDS011;2975;50.956;6.962;2023-05-02T03:33:45;41.07;;;23.53;;
5898;SDS011;2975;50.956;6.962;2023-05-02T03:36:11;42.20;;;22.87;;
5898;SDS011;2975;50.956;6.962;2023-05-02T03:38:37;39.40;;;22.20;;
5898;SDS011;2975;50.956;6.962;2023-05-02T03:41:02;41.97;;;22.10;;
5898;SDS011;2975;50.956;6.962;2023-05-02T03:43:28;40.97;;;21.90;;
5898;SDS011;2975;50.956;6.962;2023-05-02T03:45:54;44.77;;;23.87;;
5898;SDS011;2975;50.956;6.962;2023-05-02T03:48:20;42.97;;;22.73;;
5898;SDS011;2975;50.956;6.962;2023-05-02T03:50:46;38.77;;;22.10;;
5898;SDS011;2975;50.956;6.962;2023-05-02T03:53:11;40.40;;;23.27;;
5898;SDS011;2975;50.956;6.962;2023-05-02T03:55:38;39.80;;;22.43;;
5898;SDS011;2975;50.956;6.962;2023-05-02T03:58:04;39.90;;;21.30;;
5898;SDS011;2975;50.956;6.962;2023-05-02T04:00:30;40.43;;;21.40;;
5898;SDS011;2975;50.956;6.962;2023-05-02T04:02:56;37.53;;;21.00;;
5898;SDS011;2975;50.956;6.962;2023-05-02T04:05:22;34.83;;;19.87;;
5898;SDS011;2975;50.956;6.962;2023-05-02T04:07:47;36.90;;;20.33;;
5898;SDS011;2975;50.956;6.962;2023-05-02T04:10:13;37.17;;;19.43;;
5898;SDS011;2975;50.956;6.962;2023-05-02T04:12:41;35.20;;;20.30;;
5898;SDS011;2975;50.956;6.962;2023-05-02T04:15:08;38.10;;;21.50;;
5898;SDS011;2975;50.956;6.962;2023-05-02T04:17:34;35.33;;;20.83;;
5898;SDS011;2975;50.956;6.962;2023-05-02T04:20:00;35.93;;;20.83;;
5898;SDS011;2975;50.956;6.962;2023-05-02T04:22:25;38.13;;;21.27;;
5898;SDS011;2975;50.956;6.962;2023-05-02T04:24:51;33.30;;;20.30;;
5898;SDS011;2975;50.956;6.962;2023-05-02T04:27:17;31.53;;;18.83;;
5898;SDS011;2975;50.956;6.962;2023-05-02T04:29:43;40.77;;;20.87;;
5898;SDS011;2975;50.956;6.962;2023-05-02T04:32:11;33.03;;;17.80;;
5898;SDS011;2975;50.956;6.962;2023-05-02T04:34:37;38.23;;;20.13;;
5898;SDS011;2975;50.956;6.962;2023-05-02T04:37:03;38.03;;;21.53;;
5898;SDS011;2975;50.956;6.962;2023-05-02T04:39:28;37.53;;;21.13;;
5898;SDS011;2975;50.956;6.962;2023-05-02T04:41:54;39.17;;;19.83;;
5898;SDS011;2975;50.956;6.962;2023-05-02T04:44:19;41.83;;;21.37;;
5898;SDS011;2975;50.956;6.962;2023-05-02T04:46:45;36.27;;;19.40;;
5898;SDS011;2975;50.956;6.962;2023-05-02T04:49:10;33.30;;;20.37;;
5898;SDS011;2975;50.956;6.962;2023-05-02T04:51:36;38.40;;;20.93;;
5898;SDS011;2975;50.956;6.962;2023-05-02T04:54:02;39.33;;;20.03;;
5898;SDS011;2975;50.956;6.962;2023-05-02T04:56:27;38.57;;;20.17;;
5898;SDS011;2975;50.956;6.962;2023-05-02T04:58:53;38.23;;;19.00;;
5898;SDS011;2975;50.956;6.962;2023-05-02T05:01:19;39.63;;;19.90;;
5898;SDS011;2975;50.956;6.962;2023-05-02T05:03:44;35.73;;;18.53;;
5898;SDS011;2975;50.956;6.962;2023-05-02T05:06:10;35.67;;;19.53;;
5898;SDS011;2975;50.956;6.962;2023-05-02T05:08:36;35.63;;;19.37;;
5898;SDS011;2975;50.956;6.962;2023-05-02T05:11:02;37.60;;;19.17;;
5898;SDS011;2975;50.956;6.962;2023-05-02T05:13:29;34.50;;;18.47;;
5898;SDS011;2975;50.956;6.962;2023-05-02T05:15:55;36.23;;;19.77;;
5898;SDS011;2975;50.956;6.962;2023-05-02T05:18:21;30.83;;;17.93;;
5898;SDS011;2975;50.956;6.962;2023-05-02T05:20:47;34.30;;;17.87;;
5898;SDS011;2975;50.956;6.962;2023-05-02T05:23:13;31.63;;;17.87;;
5898;SDS011;2975;50.956;6.962;2023-05-02T05:25:38;31.10;;;18.30;;
5898;SDS011;2975;50.956;6.962;2023-05-02T05:28:04;30.83;;;16.50;;
5898;SDS011;2975;50.956;6.962;2023-05-02T05:30:30;30.20;;;16.73;;
5898;SDS011;2975;50.956;6.962;2023-05-02T05:32:56;33.93;;;18.23;;
5898;SDS011;2975;50.956;6.962;2023-05-02T05:35:24;36.23;;;17.67;;
5898;SDS011;2975;50.956;6.962;2023-05-02T05:37:50;32.00;;;18.57;;
5898;SDS011;2975;50.956;6.962;2023-05-02T05:40:15;32.13;;;17.13;;
5898;SDS011;2975;50.956;6.962;2023-05-02T05:42:41;38.10;;;17.90;;
5898;SDS011;2975;50.956;6.962;2023-05-02T05:45:07;30.17;;;17.07;;
5898;SDS011;2975;50.956;6.962;2023-05-02T05:47:33;30.43;;;17.60;;
5898;SDS011;2975;50.956;6.962;2023-05-02T05:49:59;34.40;;;17.27;;
5898;SDS011;2975;50.956;6.962;2023-05-02T05:52:24;29.60;;;15.90;;
5898;SDS011;2975;50.956;6.962;2023-05-02T05:54:54;33.87;;;17.47;;
5898;SDS011;2975;50.956;6.962;2023-05-02T05:57:20;29.47;;;16.37;;
5898;SDS011;2975;50.956;6.962;2023-05-02T05:59:47;29.70;;;16.23;;
5898;SDS011;2975;50.956;6.962;2023-05-02T06:02:12;31.17;;;16.00;;
5898;SDS011;2975;50.956;6.962;2023-05-02T06:04:39;28.23;;;16.83;;
5898;SDS011;2975;50.956;6.962;2023-05-02T06:07:05;28.47;;;16.20;;
5898;SDS011;2975;50.956;6.962;2023-05-02T06:09:30;29.80;;;15.63;;
5898;SDS011;2975;50.956;6.962;2023-05-02T06:11:56;28.50;;;16.00;;
5898;SDS011;2975;50.956;6.962;2023-05-02T06:14:21;27.40;;;14.93;;
5898;SDS011;2975;50.956;6.962;2023-05-02T06:16:48;27.40;;;15.57;;
5898;SDS011;2975;50.956;6.962;2023-05-02T06:19:13;26.37;;;15.83;;
5898;SDS011;2975;50.956;6.962;2023-05-02T06:21:39;25.83;;;14.50;;
5898;SDS011;2975;50.956;6.962;2023-05-02T06:24:05;27.03;;;15.13;;
5898;SDS011;2975;50.956;6.962;2023-05-02T06:26:30;28.20;;;15.83;;
5898;SDS011;2975;50.956;6.962;2023-05-02T06:28:56;29.77;;;15.90;;
5898;SDS011;2975;50.956;6.962;2023-05-02T06:31:22;33.27;;;17.13;;
5898;SDS011;2975;50.956;6.962;2023-05-02T06:33:47;31.70;;;17.03;;
5898;SDS011;2975;50.956;6.962;2023-05-02T06:36:13;33.20;;;16.17;;
5898;SDS011;2975;50.956;6.962;2023-05-02T06:38:38;30.60;;;15.83;;
5898;SDS011;2975;50.956;6.962;2023-05-02T06:41:04;33.00;;;17.00;;
5898;SDS011;2975;50.956;6.962;2023-05-02T06:43:30;29.87;;;16.37;;
5898;SDS011;2975;50.956;6.962;2023-05-02T06:45:56;30.73;;;16.90;;
5898;SDS011;2975;50.956;6.962;2023-05-02T06:48:22;31.73;;;16.77;;
5898;SDS011;2975;50.956;6.962;2023-05-02T06:50:50;30.07;;;16.33;;
5898;SDS011;2975;50.956;6.962;2023-05-02T06:53:16;32.00;;;16.67;;
5898;SDS011;2975;50.956;6.962;2023-05-02T06:55:43;30.20;;;16.60;;
5898;SDS011;2975;50.956;6.962;2023-05-02T06:58:09;33.57;;;16.10;;
5898;SDS011;2975;50.956;6.962;2023-05-02T07:00:35;30.00;;;16.77;;
5898;SDS011;2975;50.956;6.962;2023-05-02T07:03:00;24.27;;;15.00;;
5898;SDS011;2975;50.956;6.962;2023-05-02T07:05:26;29.40;;;15.53;;
5898;SDS011;2975;50.956;6.962;2023-05-02T07:07:53;25.43;;;14.97;;
5898;SDS011;2975;50.956;6.962;2023-05-02T07:10:19;27.43;;;14.87;;
5898;SDS011;2975;50.956;6.962;2023-05-02T07:12:44;25.40;;;14.93;;
5898;SDS011;2975;50.956;6.962;2023-05-02T07:15:10;24.10;;;14.80;;
5898;SDS011;2975;50.956;6.962;2023-05-02T07:17:37;25.70;;;13.93;;
5898;SDS011;2975;50.956;6.962;2023-05-02T07:20:03;25.90;;;13.97;;
5898;SDS011;2975;50.956;6.962;2023-05-02T07:22:30;24.73;;;15.60;;
5898;SDS011;2975;50.956;6.962;2023-05-02T07:25:02;23.57;;;14.87;;
5898;SDS011;2975;50.956;6.962;2023-05-02T07:27:28;23.67;;;15.23;;
5898;SDS011;2975;50.956;6.962;2023-05-02T07:29:53;26.03;;;15.47;;
5898;SDS011;2975;50.956;6.962;2023-05-02T07:32:19;28.97;;;17.63;;
5898;SDS011;2975;50.956;6.962;2023-05-02T07:34:49;27.70;;;16.40;;
5898;SDS011;2975;50.956;6.962;2023-05-02T07:37:18;26.87;;;17.67;;
5898;SDS011;2975;50.956;6.962;2023-05-02T07:39:44;28.10;;;17.00;;
5898;SDS011;2975;50.956;6.962;2023-05-02T07:42:09;24.17;;;16.43;;
5898;SDS011;2975;50.956;6.962;2023-05-02T07:44:35;24.00;;;13.23;;
5898;SDS011;2975;50.956;6.962;2023-05-02T07:47:01;27.63;;;14.80;;
5898;SDS011;2975;50.956;6.962;2023-05-02T07:49:26;26.77;;;14.53;;
5898;SDS011;2975;50.956;6.962;2023-05-02T07:51:52;20.87;;;12.80;;
5898;SDS011;2975;50.956;6.962;2023-05-02T07:54:18;21.20;;;12.80;;
5898;SDS011;2975;50.956;6.962;2023-05-02T07:56:44;23.07;;;13.90;;
5898;SDS011;2975;50.956;6.962;2023-05-02T07:59:11;19.37;;;12.40;;
5898;SDS011;2975;50.956;6.962;2023-05-02T08:01:37;23.93;;;13.13;;
5898;SDS011;2975;50.956;6.962;2023-05-02T08:04:03;18.80;;;10.67;;
5898;SDS011;2975;50.956;6.962;2023-05-02T08:06:29;20.37;;;10.53;;
5898;SDS011;2975;50.956;6.962;2023-05-02T08:08:56;19.77;;;10.97;;
5898;SDS011;2975;50.956;6.962;2023-05-02T08:11:22;20.10;;;11.33;;
5898;SDS011;2975;50.956;6.962;2023-05-02T08:13:49;22.07;;;11.10;;
5898;SDS011;2975;50.956;6.962;2023-05-02T08:16:15;21.07;;;10.87;;
5898;SDS011;2975;50.956;6.962;2023-05-02T08:18:41;16.57;;;10.77;;
5898;SDS011;2975;50.956;6.962;2023-05-02T08:21:06;23.73;;;10.03;;
5898;SDS011;2975;50.956;6.962;2023-05-02T08:23:32;14.90;;;9.87;;
5898;SDS011;2975;50.956;6.962;2023-05-02T08:25:58;18.00;;;9.13;;
5898;SDS011;2975;50.956;6.962;2023-05-02T08:28:24;17.57;;;10.10;;
5898;SDS011;2975;50.956;6.962;2023-05-02T08:30:49;16.57;;;10.07;;
5898;SDS011;2975;50.956;6.962;2023-05-02T08:33:15;16.07;;;9.47;;
5898;SDS011;2975;50.956;6.962;2023-05-02T08:35:40;18.27;;;10.13;;
5898;SDS011;2975;50.956;6.962;2023-05-02T08:38:06;14.27;;;9.13;;
5898;SDS011;2975;50.956;6.962;2023-05-02T08:40:35;14.20;;;9.10;;
5898;SDS011;2975;50.956;6.962;2023-05-02T08:43:02;9.73;;;6.80;;
5898;SDS011;2975;50.956;6.962;2023-05-02T08:45:33;9.83;;;6.67;;
5898;SDS011;2975;50.956;6.962;2023-05-02T08:48:07;9.13;;;6.27;;
5898;SDS011;2975;50.956;6.962;2023-05-02T08:50:37;8.80;;;6.20;;
5898;SDS011;2975;50.956;6.962;2023-05-02T08:53:05;10.47;;;6.17;;
5898;SDS011;2975;50.956;6.962;2023-05-02T08:55:33;9.37;;;5.37;;
5898;SDS011;2975;50.956;6.962;2023-05-02T08:58:00;9.17;;;5.87;;
5898;SDS011;2975;50.956;6.962;2023-05-02T09:00:28;9.27;;;5.40;;
5898;SDS011;2975;50.956;6.962;2023-05-02T09:05:53;3.43;;;2.70;;
5898;SDS011;2975;50.956;6.962;2023-05-02T09:08:23;4.87;;;2.77;;
5898;SDS011;2975;50.956;6.962;2023-05-02T09:10:49;8.10;;;4.40;;
5898;SDS011;2975;50.956;6.962;2023-05-02T09:16:03;8.00;;;5.30;;
5898;SDS011;2975;50.956;6.962;2023-05-02T09:18:30;8.50;;;4.90;;
5898;SDS011;2975;50.956;6.962;2023-05-02T09:20:57;11.57;;;4.63;;
5898;SDS011;2975;50.956;6.962;2023-05-02T09:26:12;8.53;;;4.90;;
5898;SDS011;2975;50.956;6.962;2023-05-02T09:31:08;9.73;;;4.73;;
5898;SDS011;2975;50.956;6.962;2023-05-02T09:33:36;8.23;;;5.03;;
5898;SDS011;2975;50.956;6.962;2023-05-02T09:36:03;11.27;;;4.90;;
5898;SDS011;2975;50.956;6.962;2023-05-02T09:38:31;9.83;;;5.17;;
5898;SDS011;2975;50.956;6.962;2023-05-02T09:40:58;8.77;;;5.40;;
5898;SDS011;2975;50.956;6.962;2023-05-02T09:43:25;8.33;;;5.40;;
5898;SDS011;2975;50.956;6.962;2023-05-02T09:46:01;8.83;;;5.57;;
5898;SDS011;2975;50.956;6.962;2023-05-02T09:48:56;10.10;;;5.73;;
5898;SDS011;2975;50.956;6.962;2023-05-02T09:51:21;9.30;;;5.83;;
5898;SDS011;2975;50.956;6.962;2023-05-02T09:53:50;9.87;;;5.77;;
5898;SDS011;2975;50.956;6.962;2023-05-02T09:56:16;11.17;;;5.97;;
5898;SDS011;2975;50.956;6.962;2023-05-02T09:58:42;9.80;;;6.53;;
5898;SDS011;2975;50.956;6.962;2023-05-02T10:01:15;8.50;;;5.90;;
5898;SDS011;2975;50.956;6.962;2023-05-02T10:03:41;8.33;;;5.60;;
5898;SDS011;2975;50.956;6.962;2023-05-02T10:06:11;8.40;;;6.50;;
5898;SDS011;2975;50.956;6.962;2023-05-02T10:08:38;9.27;;;6.30;;
5898;SDS011;2975;50.956;6.962;2023-05-02T10:11:06;10.90;;;6.17;;
5898;SDS011;2975;50.956;6.962;2023-05-02T10:13:33;9.63;;;5.60;;
5898;SDS011;2975;50.956;6.962;2023-05-02T10:16:03;8.87;;;4.93;;
5898;SDS011;2975;50.956;6.962;2023-05-02T10:21:24;8.07;;;4.93;;
5898;SDS011;2975;50.956;6.962;2023-05-02T10:23:53;8.93;;;5.00;;
5898;SDS011;2975;50.956;6.962;2023-05-02T10:26:21;7.47;;;4.87;;
5898;SDS011;2975;50.956;6.962;2023-05-02T10:28:47;9.70;;;5.27;;
5898;SDS011;2975;50.956;6.962;2023-05-02T10:31:14;7.17;;;5.00;;
5898;SDS011;2975;50.956;6.962;2023-05-02T10:33:41;6.67;;;4.77;;
5898;SDS011;2975;50.956;6.962;2023-05-02T10:36:08;10.47;;;5.27;;
5898;SDS011;2975;50.956;6.962;2023-05-02T10:38:36;8.17;;;4.63;;
5898;SDS011;2975;50.956;6.962;2023-05-02T10:41:04;7.17;;;4.33;;
5898;SDS011;2975;50.956;6.962;2023-05-02T10:43:34;9.17;;;4.30;;
5898;SDS011;2975;50.956;6.962;2023-05-02T10:46:01;6.33;;;4.33;;
5898;SDS011;2975;50.956;6.962;2023-05-02T10:48:28;6.47;;;4.43;;
5898;SDS011;2975;50.956;6.962;2023-05-02T10:50:54;8.23;;;4.50;;
5898;SDS011;2975;50.956;6.962;2023-05-02T10:53:25;7.57;;;4.07;;
5898;SDS011;2975;50.956;6.962;2023-05-02T10:56:11;11.30;;;4.67;;
5898;SDS011;2975;50.956;6.962;2023-05-02T10:58:50;6.37;;;4.57;;
5898;SDS011;2975;50.956;6.962;2023-05-02T11:03:59;5.80;;;4.20;;
5898;SDS011;2975;50.956;6.962;2023-05-02T11:06:26;8.77;;;4.17;;
5898;SDS011;2975;50.956;6.962;2023-05-02T11:09:06;6.57;;;3.90;;
5898;SDS011;2975;50.956;6.962;2023-05-02T11:11:43;7.43;;;3.80;;
5898;SDS011;2975;50.956;6.962;2023-05-02T11:14:09;6.73;;;3.87;;
5898;SDS011;2975;50.956;6.962;2023-05-02T11:19:25;7.57;;;3.00;;
5898;SDS011;2975;50.956;6.962;2023-05-02T11:24:45;5.63;;;3.00;;
5898;SDS011;2975;50.956;6.962;2023-05-02T11:30:03;9.23;;;4.70;;
5898;SDS011;2975;50.956;6.962;2023-05-02T11:35:13;5.00;;;3.90;;
5898;SDS011;2975;50.956;6.962;2023-05-02T11:37:42;6.60;;;3.67;;
5898;SDS011;2975;50.956;6.962;2023-05-02T11:40:11;8.23;;;4.53;;
5898;SDS011;2975;50.956;6.962;2023-05-02T11:42:37;9.63;;;5.80;;
5898;SDS011;2975;50.956;6.962;2023-05-02T11:45:03;7.10;;;5.17;;
5898;SDS011;2975;50.956;6.962;2023-05-02T11:47:31;10.53;;;5.40;;
5898;SDS011;2975;50.956;6.962;2023-05-02T11:49:57;6.37;;;4.90;;
5898;SDS011;2975;50.956;6.962;2023-05-02T11:52:24;10.30;;;5.13;;
5898;SDS011;2975;50.956;6.962;2023-05-02T11:54:53;10.07;;;5.33;;
5898;SDS011;2975;50.956;6.962;2023-05-02T11:57:22;8.70;;;5.20;;
5898;SDS011;2975;50.956;6.962;2023-05-02T11:59:52;11.17;;;5.23;;
5898;SDS011;2975;50.956;6.962;2023-05-02T12:02:20;6.13;;;4.27;;
5898;SDS011;2975;50.956;6.962;2023-05-02T12:05:03;7.63;;;4.20;;
5898;SDS011;2975;50.956;6.962;2023-05-02T12:07:34;8.63;;;4.80;;
5898;SDS011;2975;50.956;6.962;2023-05-02T12:10:00;8.33;;;4.63;;
5898;SDS011;2975;50.956;6.962;2023-05-02T12:12:26;4.47;;;3.20;;
5898;SDS011;2975;50.956;6.962;2023-05-02T12:14:52;4.87;;;3.10;;
5898;SDS011;2975;50.956;6.962;2023-05-02T12:17:18;7.67;;;3.17;;
5898;SDS011;2975;50.956;6.962;2023-05-02T12:19:45;4.93;;;2.80;;
5898;SDS011;2975;50.956;6.962;2023-05-02T12:22:12;6.20;;;2.77;;
5898;SDS011;2975;50.956;6.962;2023-05-02T12:24:39;12.23;;;3.37;;
5898;SDS011;2975;50.956;6.962;2023-05-02T12:27:11;11.07;;;3.47;;
5898;SDS011;2975;50.956;6.962;2023-05-02T12:29:39;10.73;;;3.47;;
5898;SDS011;2975;50.956;6.962;2023-05-02T12:32:06;7.70;;;3.27;;
5898;SDS011;2975;50.956;6.962;2023-05-02T12:34:32;8.77;;;3.53;;
5898;SDS011;2975;50.956;6.962;2023-05-02T12:37:00;6.10;;;3.00;;
5898;SDS011;2975;50.956;6.962;2023-05-02T12:42:12;5.90;;;2.93;;
5898;SDS011;2975;50.956;6.962;2023-05-02T12:44:39;6.40;;;3.33;;
5898;SDS011;2975;50.956;6.962;2023-05-02T12:47:06;7.97;;;3.50;;
5898;SDS011;2975;50.956;6.962;2023-05-02T12:49:33;7.80;;;3.80;;
5898;SDS011;2975;50.956;6.962;2023-05-02T12:52:16;7.00;;;3.23;;
5898;SDS011;2975;50.956;6.962;2023-05-02T12:54:42;10.10;;;3.93;;
5898;SDS011;2975;50.956;6.962;2023-05-02T12:57:08;8.80;;;3.57;;
5898;SDS011;2975;50.956;6.962;2023-05-02T12:59:35;6.00;;;3.30;;
5898;SDS011;2975;50.956;6.962;2023-05-02T13:02:01;7.90;;;3.40;;
5898;SDS011;2975;50.956;6.962;2023-05-02T13:04:36;12.33;;;3.50;;
5898;SDS011;2975;50.956;6.962;2023-05-02T13:07:04;6.63;;;3.20;;
5898;SDS011;2975;50.956;6.962;2023-05-02T13:09:30;6.73;;;3.40;;
5898;SDS011;2975;50.956;6.962;2023-05-02T13:11:56;8.50;;;3.37;;
5898;SDS011;2975;50.956;6.962;2023-05-02T13:14:23;7.50;;;3.63;;
5898;SDS011;2975;50.956;6.962;2023-05-02T13:16:49;10.03;;;3.73;;
5898;SDS011;2975;50.956;6.962;2023-05-02T13:19:17;9.23;;;3.80;;
5898;SDS011;2975;50.956;6.962;2023-05-02T13:21:43;7.10;;;3.73;;
5898;SDS011;2975;50.956;6.962;2023-05-02T13:24:08;6.23;;;3.57;;
5898;SDS011;2975;50.956;6.962;2023-05-02T13:26:34;8.33;;;3.90;;
5898;SDS011;2975;50.956;6.962;2023-05-02T13:29:00;8.93;;;3.53;;
5898;SDS011;2975;50.956;6.962;2023-05-02T13:31:25;6.73;;;3.60;;
5898;SDS011;2975;50.956;6.962;2023-05-02T13:33:51;8.97;;;3.67;;
5898;SDS011;2975;50.956;6.962;2023-05-02T13:36:17;8.10;;;3.30;;
5898;SDS011;2975;50.956;6.962;2023-05-02T13:38:43;7.37;;;3.60;;
5898;SDS011;2975;50.956;6.962;2023-05-02T13:41:08;8.30;;;3.50;;
5898;SDS011;2975;50.956;6.962;2023-05-02T13:43:34;8.53;;;3.00;;
5898;SDS011;2975;50.956;6.962;2023-05-02T13:45:59;6.37;;;3.17;;
5898;SDS011;2975;50.956;6.962;2023-05-02T13:48:25;9.67;;;3.63;;
5898;SDS011;2975;50.956;6.962;2023-05-02T13:50:51;7.10;;;3.20;;
5898;SDS011;2975;50.956;6.962;2023-05-02T13:53:16;9.77;;;3.70;;
5898;SDS011;2975;50.956;6.962;2023-05-02T13:55:42;7.33;;;3.10;;
5898;SDS011;2975;50.956;6.962;2023-05-02T13:58:07;5.77;;;3.23;;
5898;SDS011;2975;50.956;6.962;2023-05-02T14:00:33;6.70;;;3.10;;
5898;SDS011;2975;50.956;6.962;2023-05-02T14:02:59;6.10;;;3.20;;
5898;SDS011;2975;50.956;6.962;2023-05-02T14:05:25;5.53;;;3.20;;
5898;SDS011;2975;50.956;6.962;2023-05-02T14:07:50;9.33;;;3.67;;
5898;SDS011;2975;50.956;6.962;2023-05-02T14:10:16;5.47;;;3.53;;
5898;SDS011;2975;50.956;6.962;2023-05-02T14:12:41;11.40;;;3.17;;
5898;SDS011;2975;50.956;6.962;2023-05-02T14:15:07;8.43;;;3.40;;
5898;SDS011;2975;50.956;6.962;2023-05-02T14:17:33;10.07;;;3.73;;
5898;SDS011;2975;50.956;6.962;2023-05-02T14:19:59;9.33;;;3.73;;
5898;SDS011;2975;50.956;6.962;2023-05-02T14:22:24;10.10;;;3.70;;
5898;SDS011;2975;50.956;6.962;2023-05-02T14:24:50;7.30;;;4.47;;
5898;SDS011;2975;50.956;6.962;2023-05-02T14:27:15;7.83;;;4.13;;
5898;SDS011;2975;50.956;6.962;2023-05-02T14:29:44;7.57;;;3.92;;
5898;SDS011;2975;50.956;6.962;2023-05-02T14:32:11;6.67;;;3.80;;
5898;SDS011;2975;50.956;6.962;2023-05-02T14:34:36;6.70;;;4.03;;
5898;SDS011;2975;50.956;6.962;2023-05-02T14:37:02;8.63;;;4.33;;
5898;SDS011;2975;50.956;6.962;2023-05-02T14:39:27;8.53;;;3.70;;
5898;SDS011;2975;50.956;6.962;2023-05-02T14:41:53;7.43;;;3.40;;
5898;SDS011;2975;50.956;6.962;2023-05-02T14:44:18;9.20;;;3.93;;
5898;SDS011;2975;50.956;6.962;2023-05-02T14:46:44;7.43;;;3.87;;
5898;SDS011;2975;50.956;6.962;2023-05-02T14:49:10;7.60;;;4.07;;
5898;SDS011;2975;50.956;6.962;2023-05-02T14:51:39;6.80;;;3.73;;
5898;SDS011;2975;50.956;6.962;2023-05-02T14:54:05;8.77;;;3.07;;
5898;SDS011;2975;50.956;6.962;2023-05-02T14:56:31;6.70;;;3.40;;
5898;SDS011;2975;50.956;6.962;2023-05-02T14:58:57;6.63;;;3.30;;
5898;SDS011;2975;50.956;6.962;2023-05-02T15:01:23;7.93;;;3.57;;
5898;SDS011;2975;50.956;6.962;2023-05-02T15:03:48;7.23;;;3.40;;
5898;SDS011;2975;50.956;6.962;2023-05-02T15:06:15;5.80;;;3.17;;
5898;SDS011;2975;50.956;6.962;2023-05-02T15:08:41;6.87;;;3.40;;
5898;SDS011;2975;50.956;6.962;2023-05-02T15:11:08;6.60;;;3.40;;
5898;SDS011;2975;50.956;6.962;2023-05-02T15:13:35;6.00;;;3.07;;
5898;SDS011;2975;50.956;6.962;2023-05-02T15:16:01;7.43;;;3.23;;
5898;SDS011;2975;50.956;6.962;2023-05-02T15:18:27;9.00;;;3.53;;
5898;SDS011;2975;50.956;6.962;2023-05-02T15:20:53;4.93;;;3.10;;
5898;SDS011;2975;50.956;6.962;2023-05-02T15:23:18;6.00;;;2.90;;
5898;SDS011;2975;50.956;6.962;2023-05-02T15:25:44;7.63;;;3.50;;
5898;SDS011;2975;50.956;6.962;2023-05-02T15:28:10;8.30;;;3.03;;
5898;SDS011;2975;50.956;6.962;2023-05-02T15:30:35;5.23;;;3.03;;
5898;SDS011;2975;50.956;6.962;2023-05-02T15:33:01;7.43;;;2.93;;
5898;SDS011;2975;50.956;6.962;2023-05-02T15:35:27;6.13;;;3.07;;
5898;SDS011;2975;50.956;6.962;2023-05-02T15:37:52;6.37;;;3.30;;
5898;SDS011;2975;50.956;6.962;2023-05-02T15:40:19;6.00;;;3.30;;
5898;SDS011;2975;50.956;6.962;2023-05-02T15:42:44;8.50;;;2.97;;
5898;SDS011;2975;50.956;6.962;2023-05-02T15:45:10;7.20;;;3.20;;
5898;SDS011;2975;50.956;6.962;2023-05-02T15:47:39;6.40;;;3.07;;
5898;SDS011;2975;50.956;6.962;2023-05-02T15:50:08;4.70;;;3.10;;
5898;SDS011;2975;50.956;6.962;2023-05-02T15:52:34;5.97;;;2.60;;
5898;SDS011;2975;50.956;6.962;2023-05-02T15:55:01;5.77;;;2.80;;
5898;SDS011;2975;50.956;6.962;2023-05-02T15:57:26;4.83;;;2.80;;